Time;durP1;ratioP1;P1;durP2;ratioP2;P2;SDS_P1;SDS_P2;PMS_P1;PMS_P2;Temp;Humidity;BMP_temperature;BMP_pressure;BME280_temperature;BME280_humidity;BME280_pressure;Samples;Min_cycle;Max_cycle;Signal;HPM_P1;HPM_P2
2022/12/29 00:00:10;;;;;;;3.65;1.70;;;;;;;7.83;95.16;99922.59;5026816;28;20052;-88
2022/12/29 00:02:37;;;;;;;7.50;1.70;;;;;;;7.78;95.12;99924.66;5041145;28;20040;-89
2022/12/29 00:05:06;;;;;;;4.50;2.15;;;;;;;7.78;95.17;99924.66;5039522;28;20510;-89
2022/12/29 00:07:34;;;;;;;3.00;1.83;;;;;;;7.76;95.39;99911.66;5024481;28;20094;-88
2022/12/29 00:10:27;;;;;;;2.53;1.33;;;;;;;7.76;95.24;99927.38;5039614;28;20495;-88
2022/12/29 00:15:43;;;;;;;3.13;1.75;;;;;;;7.72;95.01;99912.75;5058343;28;20123;-88
2022/12/29 00:18:11;;;;;;;3.10;2.00;;;;;;;7.77;94.69;99900.22;5041890;28;20036;-87
2022/12/29 00:44:04;;;;;;;4.00;1.48;;;;;;;7.83;93.47;99905.13;5055431;28;20040;-84
2022/12/29 00:45:41;;;;;;;3.08;1.92;;;;;;;7.91;92.61;99888.94;5040410;28;20048;-87
2022/12/29 00:48:09;;;;;;;3.25;1.92;;;;;;;7.91;92.78;99891.56;5039328;28;20072;-88
2022/12/29 00:50:36;;;;;;;3.40;1.92;;;;;;;7.90;92.94;99883.78;5048765;28;20613;-88
2022/12/29 00:53:03;;;;;;;5.90;1.73;;;;;;;7.95;92.85;99882.56;5024967;28;20084;-88
2022/12/29 00:55:30;;;;;;;4.68;2.25;;;;;;;7.93;93.04;99875.75;5050879;28;20040;-88
2022/12/29 00:57:58;;;;;;;4.45;1.73;;;;;;;7.94;92.97;99880.06;5019291;28;20037;-88
2022/12/29 01:00:25;;;;;;;4.68;1.80;;;;;;;7.92;93.62;99880.13;5028022;28;20040;-88
2022/12/29 01:02:53;;;;;;;3.17;1.60;;;;;;;7.89;93.71;99869.00;5043831;28;20099;-88
2022/12/29 01:05:20;;;;;;;3.45;1.60;;;;;;;7.86;93.98;99880.50;5044004;28;20045;-88
2022/12/29 01:07:48;;;;;;;4.25;1.60;;;;;;;7.86;93.51;99877.88;5043679;28;20044;-87
2022/12/29 01:10:15;;;;;;;4.07;1.63;;;;;;;7.89;93.57;99884.75;5047472;28;20040;-87
2022/12/29 01:12:44;;;;;;;3.03;1.60;;;;;;;7.86;93.75;99896.22;5020559;28;20041;-85
2022/12/29 01:15:14;;;;;;;2.80;1.17;;;;;;;7.84;93.91;99879.78;5045741;28;20021;-88
2022/12/29 01:17:42;;;;;;;3.08;1.58;;;;;;;7.82;93.84;99869.34;5037787;28;20040;-87
2022/12/29 01:20:10;;;;;;;2.63;1.40;;;;;;;7.86;93.38;99875.25;5035737;28;20059;-87
2022/12/29 01:22:38;;;;;;;2.35;1.40;;;;;;;7.83;93.98;99881.56;5038043;28;20037;-89
2022/12/29 01:25:06;;;;;;;4.43;1.65;;;;;;;7.86;93.56;99870.03;5051262;28;20058;-88
2022/12/29 01:27:34;;;;;;;3.83;2.03;;;;;;;7.82;93.35;99874.59;5032430;28;20091;-87
2022/12/29 01:30:01;;;;;;;2.92;1.90;;;;;;;7.84;93.83;99875.38;5034419;28;20518;-87
2022/12/29 01:32:28;;;;;;;6.50;1.77;;;;;;;7.84;93.71;99875.38;5068431;28;20024;-89
2022/12/29 01:34:55;;;;;;;2.55;1.65;;;;;;;7.83;93.83;99862.34;5043505;28;20063;-88
2022/12/29 01:37:23;;;;;;;2.72;1.40;;;;;;;7.88;93.63;99865.56;5042963;28;20030;-88
2022/12/29 01:39:50;;;;;;;2.78;1.65;;;;;;;7.89;94.26;99864.63;5046098;28;20519;-87
2022/12/29 01:42:19;;;;;;;4.35;1.70;;;;;;;7.89;93.99;99856.75;5055669;28;20097;-87
2022/12/29 01:44:48;;;;;;;5.95;1.88;;;;;;;7.93;93.98;99860.88;5042868;28;20284;-87
2022/12/29 01:47:30;;;;;;;3.55;1.92;;;;;;;7.91;93.79;99869.75;5045748;28;20033;-88
2022/12/29 01:50:03;;;;;;;3.47;1.80;;;;;;;7.93;93.67;99867.91;5047279;28;20037;-88
2022/12/29 01:52:32;;;;;;;4.28;2.05;;;;;;;7.90;94.51;99854.97;5030224;28;20269;-88
2022/12/29 01:55:02;;;;;;;4.20;1.77;;;;;;;7.91;94.07;99861.88;5028857;28;20458;-87
2022/12/29 01:57:32;;;;;;;2.53;1.50;;;;;;;7.91;94.22;99856.66;5027833;28;20132;-86
2022/12/29 02:00:09;;;;;;;2.17;1.60;;;;;;;7.89;94.41;99848.88;5045826;28;20071;-87
2022/12/29 02:02:36;;;;;;;3.08;1.80;;;;;;;7.89;94.27;99846.28;5035608;28;20102;-87
2022/12/29 02:05:11;;;;;;;3.92;1.55;;;;;;;7.87;95.23;99848.13;5043566;28;20053;-88
2022/12/29 02:07:42;;;;;;;2.58;1.52;;;;;;;7.81;95.75;99841.47;5062976;28;20069;-88
2022/12/29 02:10:09;;;;;;;5.47;1.55;;;;;;;7.76;95.73;99847.94;5050523;28;20056;-90
2022/12/29 02:12:37;;;;;;;3.35;2.03;;;;;;;7.72;96.20;99833.34;5043159;28;20043;-87
2022/12/29 02:15:04;;;;;;;3.70;2.00;;;;;;;7.72;96.43;99835.94;5029481;28;20041;-88
2022/12/29 02:18:14;;;;;;;5.78;2.30;;;;;;;7.74;97.01;99829.66;5042723;28;20041;-88
2022/12/29 02:21:03;;;;;;;4.38;2.13;;;;;;;7.76;97.02;99826.97;5058246;28;20064;-87
2022/12/29 02:24:06;;;;;;;3.83;1.90;;;;;;;7.73;96.64;99821.91;5040587;28;20576;-88
2022/12/29 02:27:06;;;;;;;4.00;2.33;;;;;;;7.74;97.13;99828.81;5051311;28;20048;-86
2022/12/29 02:29:50;;;;;;;3.08;1.80;;;;;;;7.79;96.74;99821.53;5058004;28;20080;-86
2022/12/29 02:32:29;;;;;;;2.53;1.67;;;;;;;7.82;96.66;99816.13;5048028;28;20040;-87
2022/12/29 02:35:00;;;;;;;3.53;1.75;;;;;;;7.84;95.77;99812.47;5040404;28;20110;-88
2022/12/29 02:37:40;;;;;;;4.25;1.92;;;;;;;7.86;95.88;99818.44;5039486;28;20049;-87
2022/12/29 02:40:23;;;;;;;2.25;1.50;;;;;;;7.91;95.29;99810.31;5027749;28;20414;-88
2022/12/29 02:42:55;;;;;;;2.17;1.58;;;;;;;7.89;94.12;99801.72;5049920;28;20124;-88
2022/12/29 02:45:32;;;;;;;5.25;2.15;;;;;;;7.89;93.99;99806.97;5060815;28;20048;-89
2022/12/29 02:48:10;;;;;;;4.38;2.50;;;;;;;7.90;93.79;99803.41;5061009;28;20040;-88
2022/12/29 02:50:40;;;;;;;4.75;2.00;;;;;;;7.90;93.34;99806.00;5061979;28;20040;-88
2022/12/29 02:53:11;;;;;;;4.97;2.13;;;;;;;7.90;92.18;99802.56;5037399;28;20057;-88
2022/12/29 02:55:40;;;;;;;5.57;1.55;;;;;;;7.92;92.98;99798.88;5062209;28;20041;-87
2022/12/29 02:58:22;;;;;;;2.65;1.55;;;;;;;7.95;92.87;99821.47;5053756;28;20033;-87
2022/12/29 03:01:16;;;;;;;4.82;1.80;;;;;;;7.98;91.76;99801.16;5055755;28;20052;-87
2022/12/29 03:04:10;;;;;;;3.22;1.77;;;;;;;8.06;91.16;99788.41;5033945;28;20111;-87
2022/12/29 03:07:00;;;;;;;4.63;1.50;;;;;;;8.08;90.07;99799.66;5026599;28;20053;-88
2022/12/29 03:09:48;;;;;;;3.13;1.48;;;;;;;8.15;89.53;99788.75;5043858;28;20499;-87
2022/12/29 03:16:07;;;;;;;3.70;1.52;;;;;;;8.21;89.04;99781.38;5068278;28;20037;-89
2022/12/29 03:19:07;;;;;;;2.30;1.60;;;;;;;8.29;87.97;99770.41;5038116;28;20049;-88
2022/12/29 03:24:49;;;;;;;4.20;1.40;;;;;;;8.36;87.96;99775.19;5037930;28;20045;-88
2022/12/29 03:27:38;;;;;;;2.47;1.42;;;;;;;8.41;87.92;99777.53;5040977;28;20040;-88
2022/12/29 03:30:07;;;;;;;2.00;1.25;;;;;;;8.45;87.41;99776.38;5033787;28;20041;-88
2022/12/29 03:32:48;;;;;;;4.15;1.55;;;;;;;8.46;86.84;99769.34;5024750;28;20107;-87
2022/12/29 03:35:17;;;;;;;4.93;1.60;;;;;;;8.46;86.72;99772.81;5025459;28;20432;-87
2022/12/29 03:38:19;;;;;;;3.90;1.33;;;;;;;8.51;86.75;99773.41;5026305;28;20062;-88
2022/12/29 03:40:52;;;;;;;3.80;1.70;;;;;;;8.53;86.17;99761.00;5047847;28;20049;-88
2022/12/29 03:43:21;;;;;;;6.38;1.90;;;;;;;8.57;86.66;99770.38;5045335;28;20033;-87
2022/12/29 03:45:48;;;;;;;2.45;1.30;;;;;;;8.57;86.07;99762.50;5037757;28;20041;-89
2022/12/29 03:48:16;;;;;;;2.47;1.38;;;;;;;8.56;85.75;99752.94;5044134;28;20051;-88
2022/12/29 03:50:44;;;;;;;5.97;1.80;;;;;;;8.58;86.07;99756.31;5058587;28;20130;-88
2022/12/29 03:53:11;;;;;;;3.75;1.73;;;;;;;8.59;86.05;99765.00;5027442;28;20053;-88
2022/12/29 03:55:39;;;;;;;3.55;1.80;;;;;;;8.66;86.74;99768.09;5044917;28;20071;-88
2022/12/29 03:58:07;;;;;;;3.42;1.45;;;;;;;8.60;85.76;99761.44;5046646;28;20029;-88
2022/12/29 04:00:34;;;;;;;3.92;1.58;;;;;;;8.62;86.50;99770.91;5034388;28;20434;-87
2022/12/29 04:03:01;;;;;;;2.15;1.17;;;;;;;8.67;86.36;99778.47;5017403;28;20049;-87
2022/12/29 04:05:29;;;;;;;3.00;1.42;;;;;;;8.77;86.20;99762.97;5039611;28;20037;-87
2022/12/29 04:07:56;;;;;;;3.40;1.30;;;;;;;8.77;85.93;99774.31;5040268;28;20067;-85
2022/12/29 04:10:24;;;;;;;3.05;1.55;;;;;;;8.74;86.09;99750.06;5035020;28;20106;-88
2022/12/29 04:12:51;;;;;;;2.53;1.45;;;;;;;8.75;86.06;99755.22;5052236;28;20057;-87
2022/12/29 04:15:19;;;;;;;2.83;1.60;;;;;;;8.80;86.45;99765.41;5051963;28;20037;-87
2022/12/29 04:17:46;;;;;;;4.82;1.70;;;;;;;8.82;86.22;99760.88;5072653;28;20032;-86
2022/12/29 04:23:01;;;;;;;6.03;1.67;;;;;;;8.79;86.26;99761.13;5063892;28;20050;-85
2022/12/29 04:25:28;;;;;;;2.47;1.30;;;;;;;8.84;86.54;99753.78;5047998;28;20036;-84
2022/12/29 04:27:56;;;;;;;2.72;1.60;;;;;;;8.82;86.80;99766.97;5047929;28;20037;-88
2022/12/29 04:30:37;;;;;;;2.30;1.20;;;;;;;8.87;86.52;99778.03;5072131;28;20730;-63
2022/12/29 04:33:05;;;;;;;2.95;1.40;;;;;;;8.91;86.63;99760.28;5057301;28;20046;-64
2022/12/29 04:35:32;;;;;;;3.50;1.50;;;;;;;8.95;86.03;99753.91;5054615;28;20136;-64
2022/12/29 04:38:00;;;;;;;3.53;1.98;;;;;;;8.93;85.97;99763.66;5057903;28;20540;-62
2022/12/29 04:40:27;;;;;;;4.45;1.67;;;;;;;8.96;86.11;99762.59;5048810;28;20083;-64
2022/12/29 04:42:54;;;;;;;4.20;1.58;;;;;;;8.97;85.59;99744.16;5052631;22;20069;-66
2022/12/29 04:45:22;;;;;;;2.95;1.40;;;;;;;9.00;85.88;99741.31;5039979;28;20195;-65
2022/12/29 04:47:49;;;;;;;2.45;1.65;;;;;;;9.02;85.53;99754.34;5029708;28;20136;-65
2022/12/29 04:50:16;;;;;;;3.40;1.50;;;;;;;9.09;85.50;99745.09;5038092;28;20490;-66
2022/12/29 04:52:44;;;;;;;5.72;1.38;;;;;;;9.08;84.99;99740.81;5033412;28;20409;-66
2022/12/29 04:55:11;;;;;;;2.50;1.23;;;;;;;9.05;84.86;99739.25;5032819;28;20109;-66
2022/12/29 04:57:38;;;;;;;3.92;1.80;;;;;;;9.06;85.15;99740.91;5034616;28;20619;-64
2022/12/29 05:00:06;;;;;;;2.65;1.60;;;;;;;9.07;85.80;99733.88;5036067;28;20080;-65
2022/12/29 05:02:33;;;;;;;3.65;1.58;;;;;;;9.08;85.38;99731.13;5036807;28;20076;-66
2022/12/29 05:05:01;;;;;;;2.88;1.50;;;;;;;9.06;85.12;99732.19;5034374;28;20049;-66
2022/12/29 05:07:28;;;;;;;2.50;1.50;;;;;;;9.04;85.15;99734.06;5037141;28;20139;-64
2022/12/29 05:09:55;;;;;;;2.30;1.42;;;;;;;9.07;85.17;99736.50;5030663;28;20155;-67
2022/12/29 05:12:22;;;;;;;2.08;1.50;;;;;;;9.11;85.63;99730.09;5025667;28;20092;-65
2022/12/29 05:14:49;;;;;;;1.77;1.17;;;;;;;9.15;85.40;99731.59;5033197;28;20136;-67
2022/12/29 05:17:17;;;;;;;3.97;1.25;;;;;;;9.18;85.35;99730.53;5034784;28;20041;-66
2022/12/29 05:19:44;;;;;;;6.78;1.70;;;;;;;9.12;85.08;99721.28;5035819;28;20128;-64
2022/12/29 05:22:11;;;;;;;2.10;1.13;;;;;;;9.08;85.45;99723.25;5029722;28;20072;-66
2022/12/29 05:24:38;;;;;;;3.20;1.60;;;;;;;9.13;86.25;99717.69;5036508;28;20057;-65
2022/12/29 05:27:06;;;;;;;4.13;1.73;;;;;;;9.11;85.60;99712.56;5033966;28;20045;-64
2022/12/29 05:29:33;;;;;;;3.40;1.60;;;;;;;9.10;86.13;99721.38;5007724;28;20059;-66
2022/12/29 05:32:00;;;;;;;5.25;1.80;;;;;;;9.15;86.17;99697.44;5026525;28;20119;-64
2022/12/29 05:34:28;;;;;;;2.67;1.35;;;;;;;9.18;85.70;99704.25;5027288;28;20335;-65
2022/12/29 05:36:55;;;;;;;3.95;1.50;;;;;;;9.18;85.57;99696.38;5027593;28;20058;-65
2022/12/29 05:39:22;;;;;;;3.15;1.73;;;;;;;9.21;86.33;99728.53;5030939;28;20049;-66
2022/12/29 05:41:49;;;;;;;1.50;1.10;;;;;;;9.26;86.05;99694.06;5015812;28;20049;-65
2022/12/29 05:44:16;;;;;;;1.70;1.40;;;;;;;9.30;86.14;99685.88;5017020;28;20053;-66
2022/12/29 05:46:44;;;;;;;3.08;1.77;;;;;;;9.30;85.74;99706.91;5019385;28;20068;-65
2022/12/29 05:49:11;;;;;;;1.92;1.50;;;;;;;9.32;85.70;99693.66;5011900;28;20050;-65
2022/12/29 05:51:38;;;;;;;4.25;1.33;;;;;;;9.38;86.35;99703.75;5016032;28;20052;-65
2022/12/29 05:54:06;;;;;;;1.90;1.30;;;;;;;9.40;86.33;99688.72;5018561;28;20060;-65
2022/12/29 05:56:33;;;;;;;2.40;1.30;;;;;;;9.42;85.52;99699.97;5024598;28;20060;-66
2022/12/29 05:59:00;;;;;;;4.38;1.50;;;;;;;9.47;85.76;99692.63;5016307;28;20064;-65
2022/12/29 06:01:27;;;;;;;1.83;1.20;;;;;;;9.49;85.66;99700.38;5016710;28;20128;-65
2022/12/29 06:03:54;;;;;;;2.88;1.27;;;;;;;9.50;85.73;99679.28;5020964;28;20084;-66
2022/12/29 06:06:22;;;;;;;1.80;1.08;;;;;;;9.54;85.90;99687.75;5019777;28;20136;-65
2022/12/29 06:08:49;;;;;;;2.60;1.20;;;;;;;9.57;85.61;99683.13;5009939;28;20438;-65
2022/12/29 06:11:16;;;;;;;2.78;1.80;;;;;;;9.61;85.47;99684.59;5013400;28;20050;-65
2022/12/29 06:13:43;;;;;;;3.03;1.42;;;;;;;9.61;85.68;99676.72;5013570;28;20153;-65
2022/12/29 06:16:11;;;;;;;5.07;1.75;;;;;;;9.64;85.79;99687.03;5022635;28;20056;-65
2022/12/29 06:18:38;;;;;;;2.50;1.42;;;;;;;9.66;85.66;99675.56;5016423;28;20060;-65
2022/12/29 06:21:05;;;;;;;1.83;1.23;;;;;;;9.63;85.32;99687.94;5001881;28;20049;-65
2022/12/29 06:23:33;;;;;;;2.38;1.40;;;;;;;9.64;85.74;99686.19;5017074;28;20141;-65
2022/12/29 06:26:00;;;;;;;4.00;1.88;;;;;;;9.70;85.60;99682.28;5017674;28;20152;-65
2022/12/29 06:28:27;;;;;;;2.83;1.35;;;;;;;9.73;85.61;99690.81;5013615;28;20061;-64
2022/12/29 06:30:54;;;;;;;3.38;1.42;;;;;;;9.78;85.38;99680.81;5006538;28;20501;-64
2022/12/29 06:33:22;;;;;;;2.28;1.23;;;;;;;9.79;85.59;99687.72;5012718;28;20069;-65
2022/12/29 06:35:49;;;;;;;3.80;1.17;;;;;;;9.81;85.71;99701.59;5012698;28;20068;-66
2022/12/29 06:38:16;;;;;;;3.55;1.30;;;;;;;9.83;85.59;99691.00;5011085;28;20524;-65
2022/12/29 06:40:44;;;;;;;3.40;1.40;;;;;;;9.87;85.27;99698.53;5002946;28;20176;-65
2022/12/29 06:43:12;;;;;;;2.53;1.27;;;;;;;9.86;85.18;99691.63;5012439;28;20053;-64
2022/12/29 06:45:39;;;;;;;4.43;1.42;;;;;;;9.86;85.19;99693.38;5011629;28;20063;-64
2022/12/29 06:48:07;;;;;;;5.00;1.50;;;;;;;9.87;84.67;99698.53;5011986;28;20060;-65
2022/12/29 06:50:34;;;;;;;4.22;1.38;;;;;;;9.87;85.10;99701.19;5011211;28;20069;-66
2022/12/29 06:53:02;;;;;;;3.97;1.23;;;;;;;9.90;84.99;99697.47;5014874;28;20124;-66
2022/12/29 06:55:29;;;;;;;1.10;0.90;;;;;;;9.90;85.43;99703.56;5014799;28;20053;-65
2022/12/29 06:57:58;;;;;;;2.42;1.45;;;;;;;9.92;85.31;99705.28;5009048;28;20597;-65
2022/12/29 07:00:25;;;;;;;1.70;0.90;;;;;;;9.92;84.94;99703.47;5010622;28;20110;-65
2022/12/29 07:02:54;;;;;;;3.05;1.25;;;;;;;9.93;85.09;99722.72;5009227;28;20129;-65
2022/12/29 07:05:22;;;;;;;2.95;1.45;;;;;;;9.92;84.58;99727.16;5011805;28;20137;-65
2022/12/29 07:07:49;;;;;;;5.03;1.67;;;;;;;9.91;84.69;99714.94;5013550;28;20148;-65
2022/12/29 07:10:16;;;;;;;2.85;0.95;;;;;;;9.94;84.55;99713.88;5010987;28;20050;-64
2022/12/29 07:12:43;;;;;;;3.50;1.40;;;;;;;9.96;84.98;99699.69;5010089;28;20148;-65
2022/12/29 07:15:12;;;;;;;3.53;1.30;;;;;;;9.96;85.23;99698.84;5011561;28;20645;-66
2022/12/29 07:17:40;;;;;;;5.90;2.35;;;;;;;9.94;84.35;99706.00;5012612;28;20136;-67
2022/12/29 07:20:08;;;;;;;2.80;1.10;;;;;;;9.92;84.42;99721.03;5008709;28;20081;-66
2022/12/29 07:22:35;;;;;;;3.72;1.20;;;;;;;9.90;84.66;99721.97;5009677;28;20136;-67
2022/12/29 07:25:03;;;;;;;2.83;1.15;;;;;;;9.93;84.37;99723.56;5011685;28;20128;-64
2022/12/29 07:27:30;;;;;;;2.63;1.45;;;;;;;9.94;84.60;99708.63;5010921;28;20129;-66
2022/12/29 07:29:57;;;;;;;2.60;1.33;;;;;;;9.92;85.21;99716.63;5004991;28;20618;-64
2022/12/29 07:32:24;;;;;;;2.47;1.30;;;;;;;9.97;84.57;99721.56;5008687;28;20084;-65
2022/12/29 07:34:51;;;;;;;1.25;0.90;;;;;;;9.99;84.84;99709.97;5010473;28;20065;-65
2022/12/29 07:37:19;;;;;;;1.45;1.13;;;;;;;9.93;84.89;99697.25;5010182;28;20052;-65
2022/12/29 07:39:47;;;;;;;3.42;1.30;;;;;;;9.94;85.46;99703.38;5008626;28;20060;-65
2022/12/29 07:42:14;;;;;;;2.47;1.08;;;;;;;9.91;85.45;99696.56;5001477;28;20158;-65
2022/12/29 07:44:41;;;;;;;1.88;1.05;;;;;;;9.89;85.69;99701.91;5010300;28;20152;-65
2022/12/29 07:47:08;;;;;;;2.10;1.27;;;;;;;9.89;85.49;99701.06;5008187;28;20049;-65
2022/12/29 07:49:35;;;;;;;3.58;1.10;;;;;;;9.93;85.96;99699.91;5004435;28;20136;-65
2022/12/29 07:52:02;;;;;;;4.82;1.15;;;;;;;9.93;86.24;99694.63;5009829;28;20073;-65
2022/12/29 07:54:30;;;;;;;2.83;1.27;;;;;;;9.93;85.97;99702.53;5009239;28;20140;-65
2022/12/29 07:56:59;;;;;;;1.65;1.02;;;;;;;9.95;86.13;99695.38;5002295;28;20212;-65
2022/12/29 07:59:27;;;;;;;1.80;1.05;;;;;;;9.96;86.13;99702.31;5008932;28;20064;-65
2022/12/29 08:01:54;;;;;;;3.05;0.98;;;;;;;10.03;85.60;99708.81;5010021;28;20084;-64
2022/12/29 08:04:21;;;;;;;4.30;1.63;;;;;;;10.03;85.99;99715.84;5007887;28;20065;-65
2022/12/29 08:06:50;;;;;;;3.22;1.35;;;;;;;10.04;86.05;99709.63;5010904;28;20473;-65
2022/12/29 08:09:17;;;;;;;2.03;1.10;;;;;;;10.06;85.79;99702.50;5009879;28;20092;-65
2022/12/29 08:11:50;;;;;;;1.75;1.13;;;;;;;10.07;85.75;99705.00;5011868;28;20077;-65
2022/12/29 08:14:18;;;;;;;2.50;1.23;;;;;;;10.11;85.52;99705.63;5014304;28;20046;-65
2022/12/29 08:16:45;;;;;;;2.20;1.30;;;;;;;10.10;85.23;99707.44;5019204;28;20079;-65
2022/12/29 08:19:13;;;;;;;2.03;1.10;;;;;;;10.09;84.96;99691.78;5015400;28;20498;-64
2022/12/29 08:21:40;;;;;;;7.50;1.50;;;;;;;10.14;85.59;99708.06;5008950;28;20053;-65
2022/12/29 08:24:08;;;;;;;2.47;1.48;;;;;;;10.16;85.26;99690.34;5016627;28;20052;-65
2022/12/29 08:26:35;;;;;;;2.65;1.38;;;;;;;10.14;85.22;99715.94;5014880;28;20057;-65
2022/12/29 08:29:02;;;;;;;2.50;0.90;;;;;;;10.16;85.65;99708.78;5013615;28;20049;-65
2022/12/29 08:31:29;;;;;;;4.00;1.00;;;;;;;10.14;85.10;99714.16;5005581;28;20517;-65
2022/12/29 08:33:57;;;;;;;4.38;1.10;;;;;;;10.11;85.12;99698.59;5008049;28;20045;-65
2022/12/29 08:36:24;;;;;;;2.00;1.20;;;;;;;10.12;85.32;99704.69;5007536;28;20524;-65
2022/12/29 08:38:51;;;;;;;2.35;1.27;;;;;;;10.13;85.40;99699.31;5009747;28;20144;-65
2022/12/29 08:41:18;;;;;;;1.80;1.10;;;;;;;10.14;85.22;99695.75;5009750;28;20498;-64
2022/12/29 08:43:47;;;;;;;5.65;1.40;;;;;;;10.16;85.18;99690.34;5008560;28;20144;-65
2022/12/29 08:46:14;;;;;;;2.88;1.40;;;;;;;10.14;85.54;99698.38;5014223;28;20072;-65
2022/12/29 08:48:41;;;;;;;2.80;1.23;;;;;;;10.14;85.53;99695.75;5013728;28;20052;-65
2022/12/29 08:51:09;;;;;;;2.65;1.05;;;;;;;10.18;85.34;99708.66;5016956;28;20046;-65
2022/12/29 08:53:36;;;;;;;2.47;1.10;;;;;;;10.20;85.64;99706.78;5015935;28;20083;-65
2022/12/29 08:56:03;;;;;;;2.35;1.40;;;;;;;10.21;85.05;99716.34;5008440;28;20409;-65
2022/12/29 08:58:32;;;;;;;1.40;0.93;;;;;;;10.24;84.85;99709.09;5010509;28;20506;-64
2022/12/29 09:00:59;;;;;;;3.53;1.23;;;;;;;10.27;85.18;99706.25;5011308;28;20052;-65
2022/12/29 09:03:26;;;;;;;5.15;1.15;;;;;;;10.30;84.95;99700.75;5020457;28;20083;-65
2022/12/29 09:06:16;;;;;;;2.90;1.25;;;;;;;10.35;84.71;99697.78;5005991;28;21271;-65
2022/12/29 09:08:44;;;;;;;4.38;1.33;;;;;;;10.33;84.72;99699.69;5008640;28;20104;-65
2022/12/29 09:11:20;;;;;;;1.50;1.13;;;;;;;10.37;84.42;99685.38;5015005;28;20073;-65
2022/12/29 09:13:48;;;;;;;2.45;1.30;;;;;;;10.33;84.32;99697.06;5012256;28;20574;-65
2022/12/29 09:16:16;;;;;;;3.40;1.38;;;;;;;10.36;84.64;99683.69;5016949;28;20060;-65
2022/12/29 09:18:44;;;;;;;1.35;1.00;;;;;;;10.39;84.46;99694.81;5012679;28;20077;-64
2022/12/29 09:21:12;;;;;;;1.83;1.20;;;;;;;10.44;84.26;99686.59;5018785;28;20085;-64
2022/12/29 09:23:40;;;;;;;4.95;1.20;;;;;;;10.48;84.44;99695.94;5013507;28;20137;-65
2022/12/29 09:26:08;;;;;;;1.83;1.35;;;;;;;10.54;84.23;99689.41;5020964;28;20046;-65
2022/12/29 09:28:36;;;;;;;2.13;1.27;;;;;;;10.57;83.95;99739.16;5018471;28;20595;-65
2022/12/29 09:31:04;;;;;;;3.15;0.98;;;;;;;10.60;83.62;99683.69;5010977;28;20124;-65
2022/12/29 09:33:33;;;;;;;3.88;1.45;;;;;;;10.60;84.05;99686.31;5006317;28;20132;-65
2022/12/29 09:36:00;;;;;;;2.42;1.27;;;;;;;10.68;83.39;99681.31;5005285;28;20134;-65
2022/12/29 09:38:28;;;;;;;3.28;1.00;;;;;;;10.68;83.49;99686.59;5012567;28;20068;-65
2022/12/29 09:41:01;;;;;;;1.90;0.98;;;;;;;10.70;83.07;99683.84;5009104;28;20069;-65
2022/12/29 09:43:52;;;;;;;4.85;1.50;;;;;;;10.74;82.94;99674.75;5010763;28;20136;-65
2022/12/29 09:46:27;;;;;;;3.03;1.48;;;;;;;10.73;82.72;99667.81;5004988;28;20133;-63
2022/12/29 09:49:08;;;;;;;2.45;1.45;;;;;;;10.69;83.19;99675.09;5011799;28;20045;-65
2022/12/29 09:51:38;;;;;;;2.33;1.58;;;;;;;10.68;83.47;99662.06;5010481;28;20053;-65
2022/12/29 09:54:30;;;;;;;4.20;1.55;;;;;;;10.74;83.25;99661.59;5010883;28;20133;-65
2022/12/29 09:56:58;;;;;;;3.03;1.60;;;;;;;10.80;83.04;99661.13;4999592;28;20502;-64
2022/12/29 09:59:54;;;;;;;3.88;1.38;;;;;;;10.87;82.75;99659.72;5011113;28;20533;-64
2022/12/29 10:02:37;;;;;;;3.15;1.13;;;;;;;10.96;82.59;99672.19;5005434;28;20045;-64
2022/12/29 10:05:15;;;;;;;2.95;1.15;;;;;;;10.96;82.85;99685.34;5003434;28;20133;-64
2022/12/29 10:07:52;;;;;;;2.28;1.00;;;;;;;10.95;82.04;99675.78;5010720;28;20074;-64
2022/12/29 10:10:19;;;;;;;2.25;1.40;;;;;;;10.97;82.61;99673.03;5013569;28;20313;-64
2022/12/29 10:12:58;;;;;;;2.17;1.20;;;;;;;10.97;82.64;99673.03;5011222;28;20443;-64
2022/12/29 10:15:47;;;;;;;1.48;0.85;;;;;;;10.98;82.50;99670.25;5008992;28;20133;-64
2022/12/29 10:18:39;;;;;;;2.42;0.98;;;;;;;11.05;82.93;99666.22;5005979;28;20067;-65
2022/12/29 10:21:25;;;;;;;2.25;1.30;;;;;;;11.13;82.01;99668.28;5006191;28;20054;-65
2022/12/29 10:23:53;;;;;;;3.13;1.13;;;;;;;11.16;81.73;99665.41;5011117;28;20085;-65
2022/12/29 10:26:26;;;;;;;1.70;1.00;;;;;;;11.19;81.61;99662.53;5011171;28;20078;-65
2022/12/29 10:28:57;;;;;;;4.15;1.30;;;;;;;11.26;81.76;99657.66;5011852;28;20050;-65
2022/12/29 10:31:39;;;;;;;2.70;1.10;;;;;;;11.30;81.63;99674.88;5011315;28;20104;-64
2022/12/29 10:34:37;;;;;;;2.42;1.38;;;;;;;11.40;80.98;99666.16;5018261;28;20049;-65
2022/12/29 10:37:11;;;;;;;1.73;0.90;;;;;;;11.51;80.12;99673.22;5015168;28;20071;-65
2022/12/29 10:39:58;;;;;;;2.10;1.20;;;;;;;11.62;80.64;99661.84;5014772;28;20413;-64
2022/12/29 10:42:27;;;;;;;6.30;1.23;;;;;;;11.71;79.78;99663.75;5023579;23;20181;-86
2022/12/29 10:44:55;;;;;;;3.78;0.95;;;;;;;11.79;79.24;99674.50;5007223;28;20069;-86
2022/12/29 10:47:25;;;;;;;2.30;1.55;;;;;;;11.87;79.11;99679.22;5025710;28;20037;-85
2022/12/29 10:49:58;;;;;;;1.35;0.80;;;;;;;11.88;78.79;99680.91;5019412;28;20076;-85
2022/12/29 10:52:26;;;;;;;6.63;1.15;;;;;;;11.95;78.59;99666.28;5013558;28;20034;-87
2022/12/29 10:55:17;;;;;;;2.60;1.08;;;;;;;11.90;78.21;99653.44;5001102;28;20091;-89
2022/12/29 10:57:45;;;;;;;4.22;1.13;;;;;;;11.88;78.42;99663.28;5018448;28;20037;-85
2022/12/29 11:00:20;;;;;;;1.35;0.98;;;;;;;11.85;78.34;99666.16;5008615;28;20053;-88
2022/12/29 11:02:58;;;;;;;2.92;0.93;;;;;;;11.89;78.66;99658.84;5029640;28;20064;-87
2022/12/29 11:05:34;;;;;;;4.20;1.73;;;;;;;11.88;77.97;99638.69;5006707;28;20129;-88
2022/12/29 11:08:08;;;;;;;2.72;0.90;;;;;;;11.87;78.99;99663.41;5024745;28;20037;-87
2022/12/29 11:10:38;;;;;;;5.35;1.15;;;;;;;11.88;77.88;99657.16;5024153;28;20045;-85
2022/12/29 11:13:17;;;;;;;2.95;0.90;;;;;;;11.87;77.84;99708.22;5025700;28;20029;-87
2022/12/29 11:15:49;;;;;;;1.83;1.10;;;;;;;11.88;77.91;99647.44;5026911;28;20105;-86
2022/12/29 11:18:25;;;;;;;1.42;0.75;;;;;;;11.88;78.15;99641.34;5021230;28;20048;-87
2022/12/29 11:21:01;;;;;;;1.80;1.10;;;;;;;11.85;78.23;99649.50;5041218;28;20037;-86
2022/12/29 11:23:29;;;;;;;3.63;1.23;;;;;;;11.88;78.87;99646.63;5024292;28;20141;-87
2022/12/29 11:26:22;;;;;;;4.88;1.20;;;;;;;11.83;79.11;99646.97;5020002;28;20037;-88
2022/12/29 11:29:08;;;;;;;2.05;0.90;;;;;;;11.81;79.35;99653.31;5018009;28;20030;-88
2022/12/29 11:31:43;;;;;;;2.05;1.23;;;;;;;11.80;79.31;99654.28;5020173;28;20087;-87
2022/12/29 11:34:26;;;;;;;2.85;1.08;;;;;;;11.79;79.67;99661.34;5010406;28;20458;-87
2022/12/29 11:37:00;;;;;;;2.30;1.05;;;;;;;11.77;79.60;99667.72;5007694;28;20034;-87
2022/12/29 11:39:36;;;;;;;1.92;0.95;;;;;;;11.79;80.19;99666.59;5036646;28;20049;-87
2022/12/29 11:42:09;;;;;;;3.22;0.93;;;;;;;11.70;81.67;99672.59;4997472;28;20057;-86
2022/12/29 11:44:41;;;;;;;2.03;1.10;;;;;;;11.62;83.08;99661.84;5004350;28;20041;-85
2022/12/29 11:47:13;;;;;;;4.20;1.08;;;;;;;11.52;83.92;99676.69;5007054;28;20037;-86
2022/12/29 11:49:41;;;;;;;2.90;1.23;;;;;;;11.54;84.11;99674.78;5018773;28;20069;-86
2022/12/29 11:52:09;;;;;;;3.28;1.25;;;;;;;11.51;84.63;99649.50;5004164;28;20121;-85
2022/12/29 11:54:37;;;;;;;5.03;1.10;;;;;;;11.46;84.37;99666.63;5030866;28;20053;-87
2022/12/29 11:57:14;;;;;;;2.30;1.20;;;;;;;11.48;84.57;99667.34;5028904;28;20053;-86
2022/12/29 11:59:44;;;;;;;3.10;1.02;;;;;;;11.43;84.94;99672.97;5007415;28;20045;-86
2022/12/29 12:02:50;;;;;;;3.17;1.00;;;;;;;11.37;85.69;99687.47;5008552;28;20392;-89
2022/12/29 12:05:26;;;;;;;5.80;0.95;;;;;;;11.25;85.95;99700.75;4999763;28;20045;-88
2022/12/29 12:08:08;;;;;;;1.63;0.70;;;;;;;11.20;86.81;99682.66;5031187;28;20049;-86
2022/12/29 12:10:44;;;;;;;1.67;0.82;;;;;;;11.23;87.14;99681.59;5015862;28;20050;-86
2022/12/29 12:13:25;;;;;;;1.45;0.60;;;;;;;11.20;87.78;99676.53;5008142;28;20041;-87
2022/12/29 12:15:59;;;;;;;1.45;0.60;;;;;;;11.09;88.61;99670.31;5012219;28;20054;-87
2022/12/29 12:18:30;;;;;;;1.67;0.60;;;;;;;10.95;90.48;99688.97;4999809;28;20080;-86
2022/12/29 12:21:05;;;;;;;2.55;1.10;;;;;;;10.92;91.00;99702.34;5016787;28;20091;-86
2022/12/29 12:23:42;;;;;;;1.17;0.70;;;;;;;10.78;92.02;99694.63;5003723;28;20437;-85
2022/12/29 12:26:11;;;;;;;3.65;0.70;;;;;;;10.68;92.30;99694.50;5027875;28;20510;-87
2022/12/29 12:28:55;;;;;;;1.35;0.82;;;;;;;10.66;92.75;99696.38;5023266;28;20037;-86
2022/12/29 12:31:45;;;;;;;2.38;0.55;;;;;;;10.63;93.49;99691.38;5003680;28;20075;-86
2022/12/29 12:34:39;;;;;;;3.03;0.82;;;;;;;10.56;94.00;99684.84;5026244;28;20021;-85